createdAt,value
2023-01-19T00:01:26.108Z,12.75
2023-01-19T00:03:53.428Z,9.95
2023-01-19T00:06:20.576Z,15.35
2023-01-19T00:08:49.723Z,9.00
2023-01-19T00:11:18.039Z,9.43
2023-01-19T00:13:51.921Z,8.63
2023-01-19T00:16:22.913Z,8.20
2023-01-19T00:18:51.783Z,8.07
2023-01-19T00:21:20.029Z,8.35
2023-01-19T00:23:47.589Z,6.47
2023-01-19T00:26:18.902Z,5.95
2023-01-19T00:28:46.064Z,6.20
2023-01-19T00:31:13.513Z,7.53
2023-01-19T00:33:40.558Z,4.47
2023-01-19T00:36:08.011Z,5.47
2023-01-19T00:38:35.335Z,7.10
2023-01-19T00:41:02.347Z,3.78
2023-01-19T00:43:29.314Z,6.53
2023-01-19T00:45:56.709Z,6.25
2023-01-19T00:48:23.859Z,4.78
2023-01-19T00:50:50.911Z,5.18
2023-01-19T00:53:18.284Z,5.65
2023-01-19T00:55:45.278Z,6.55
2023-01-19T00:58:12.353Z,4.93
2023-01-19T01:00:39.664Z,6.03
2023-01-19T01:03:06.798Z,5.30
2023-01-19T01:05:35.446Z,4.12
2023-01-19T01:08:02.804Z,5.57
2023-01-19T01:10:29.895Z,5.03
2023-01-19T01:12:59.110Z,2.87
2023-01-19T01:15:44.290Z,4.55
2023-01-19T01:18:11.292Z,5.80
2023-01-19T01:20:38.313Z,2.87
2023-01-19T01:23:05.621Z,3.30
2023-01-19T01:25:37.445Z,2.80
2023-01-19T01:28:08.638Z,3.90
2023-01-19T01:30:40.011Z,6.72
2023-01-19T01:33:08.112Z,3.05
2023-01-19T01:35:35.420Z,4.72
2023-01-19T01:38:02.520Z,3.50
2023-01-19T01:40:29.986Z,4.65
2023-01-19T01:42:57.304Z,2.45
2023-01-19T01:45:24.254Z,1.77
2023-01-19T01:47:52.020Z,4.10
2023-01-19T01:50:28.656Z,2.60
2023-01-19T01:53:07.308Z,1.87
2023-01-19T01:55:49.122Z,1.45
2023-01-19T01:58:16.800Z,1.52
2023-01-19T02:01:02.999Z,2.90
2023-01-19T02:03:32.359Z,2.30
2023-01-19T02:06:01.789Z,1.37
2023-01-19T02:08:55.883Z,1.73
2023-01-19T02:11:42.227Z,2.10
2023-01-19T02:14:09.242Z,1.05
2023-01-19T02:16:37.658Z,2.00
2023-01-19T02:19:08.252Z,5.68
2023-01-19T02:21:43.996Z,1.98
2023-01-19T02:24:11.787Z,0.93
2023-01-19T02:26:45.559Z,1.25
2023-01-19T02:29:19.026Z,0.90
2023-01-19T02:31:46.936Z,2.40
2023-01-19T02:34:17.747Z,0.70
2023-01-19T02:37:03.468Z,0.77
2023-01-19T02:39:47.743Z,2.97
2023-01-19T02:42:19.901Z,3.00
2023-01-19T02:44:50.844Z,2.72
2023-01-19T02:47:18.410Z,2.42
2023-01-19T02:49:53.957Z,0.52
2023-01-19T02:52:21.460Z,0.65
2023-01-19T02:55:08.652Z,0.37
2023-01-19T02:57:36.231Z,0.60
2023-01-19T03:00:25.651Z,0.88
2023-01-19T03:03:05.491Z,0.30
2023-01-19T03:06:01.592Z,1.27
2023-01-19T03:09:18.272Z,1.70
2023-01-19T03:11:51.810Z,0.77
2023-01-19T03:16:57.455Z,0.10
2023-01-19T03:19:39.296Z,0.55
2023-01-19T03:22:22.429Z,1.85
2023-01-19T03:24:51.735Z,0.95
2023-01-19T03:27:26.333Z,0.52
2023-01-19T03:29:58.031Z,0.25
2023-01-19T03:32:48.792Z,0.70
2023-01-19T03:35:18.358Z,0.68
2023-01-19T03:37:47.944Z,0.43
2023-01-19T03:40:15.578Z,0.65
2023-01-19T03:42:44.808Z,0.40
2023-01-19T03:45:13.213Z,0.50
2023-01-19T03:47:41.199Z,1.45
2023-01-19T03:50:14.721Z,1.67
2023-01-19T03:52:42.174Z,1.37
2023-01-19T03:55:10.411Z,1.00
2023-01-19T03:57:37.614Z,2.92
2023-01-19T04:00:05.522Z,1.65
2023-01-19T04:02:39.032Z,1.45
2023-01-19T04:05:06.891Z,1.25
2023-01-19T04:07:33.948Z,2.65
2023-01-19T04:10:01.058Z,1.55
2023-01-19T04:12:28.406Z,1.35
2023-01-19T04:14:55.746Z,1.30
2023-01-19T04:17:22.839Z,1.98
2023-01-19T04:19:50.211Z,1.87
2023-01-19T04:22:17.260Z,2.05
2023-01-19T04:24:44.355Z,2.20
2023-01-19T04:27:11.739Z,3.60
2023-01-19T04:29:38.857Z,1.85
2023-01-19T04:32:06.027Z,1.27
2023-01-19T04:34:33.592Z,3.20
2023-01-19T04:37:00.763Z,0.45
2023-01-19T04:39:27.846Z,0.82
2023-01-19T04:41:57.452Z,0.75
2023-01-19T04:44:24.572Z,0.28
2023-01-19T04:46:52.216Z,0.90
2023-01-19T04:49:19.679Z,0.98
2023-01-19T04:51:47.223Z,2.42
2023-01-19T04:54:14.414Z,1.87
2023-01-19T04:56:41.889Z,1.83
2023-01-19T04:59:09.097Z,3.25
2023-01-19T05:01:36.863Z,4.70
2023-01-19T05:04:06.463Z,7.75
2023-01-19T05:06:34.718Z,3.12
2023-01-19T05:09:01.962Z,4.15
2023-01-19T05:11:29.366Z,1.87
2023-01-19T05:13:56.498Z,0.85
2023-01-19T05:16:23.781Z,1.73
2023-01-19T05:18:51.267Z,4.62
2023-01-19T05:21:18.493Z,3.20
2023-01-19T05:23:45.640Z,2.28
2023-01-19T05:26:13.119Z,4.03
2023-01-19T05:28:40.266Z,4.00
2023-01-19T05:31:07.535Z,1.52
2023-01-19T05:33:34.999Z,1.65
2023-01-19T05:36:02.188Z,0.73
2023-01-19T05:38:35.283Z,2.58
2023-01-19T05:41:03.377Z,2.65
2023-01-19T05:43:30.513Z,1.90
2023-01-19T05:45:57.619Z,1.95
2023-01-19T05:48:25.046Z,3.00
2023-01-19T05:50:57.304Z,4.90
2023-01-19T05:53:24.785Z,2.33
2023-01-19T05:55:51.892Z,3.17
2023-01-19T05:58:18.968Z,3.42
2023-01-19T06:00:46.841Z,3.95
2023-01-19T06:03:14.263Z,3.30
2023-01-19T06:05:41.367Z,4.45
2023-01-19T06:08:08.613Z,3.05
2023-01-19T06:10:36.053Z,5.10
2023-01-19T06:13:03.462Z,5.12
2023-01-19T06:15:30.978Z,5.90
2023-01-19T06:17:58.351Z,5.53
2023-01-19T06:20:25.462Z,4.97
2023-01-19T06:22:52.606Z,7.10
2023-01-19T06:25:20.007Z,6.62
2023-01-19T06:27:47.195Z,5.75
2023-01-19T06:30:14.814Z,7.95
2023-01-19T06:32:42.377Z,9.10
2023-01-19T06:35:09.755Z,9.35
2023-01-19T06:37:36.866Z,8.05
2023-01-19T06:40:04.872Z,7.03
2023-01-19T06:42:32.158Z,7.78
2023-01-19T06:44:59.473Z,8.10
2023-01-19T06:47:26.906Z,9.50
2023-01-19T06:49:54.096Z,11.85
2023-01-19T06:52:21.256Z,12.07
2023-01-19T06:54:48.762Z,12.20
2023-01-19T06:57:17.251Z,9.68
2023-01-19T06:59:44.594Z,11.00
2023-01-19T07:02:27.272Z,12.43
2023-01-19T07:04:56.621Z,14.02
2023-01-19T07:07:24.125Z,13.52
2023-01-19T07:09:51.510Z,15.77
2023-01-19T07:12:21.807Z,13.43
2023-01-19T07:14:49.634Z,15.73
2023-01-19T07:17:16.975Z,18.05
2023-01-19T07:19:44.227Z,15.77
2023-01-19T07:22:11.626Z,18.58
2023-01-19T07:24:38.824Z,16.58
2023-01-19T07:27:05.946Z,13.23
2023-01-19T07:29:33.316Z,13.70
2023-01-19T07:32:00.789Z,19.40
2023-01-19T07:34:28.357Z,16.90
2023-01-19T07:36:56.572Z,20.98
2023-01-19T07:39:23.709Z,17.85
2023-01-19T07:41:50.940Z,14.65
2023-01-19T07:44:18.885Z,22.67
2023-01-19T07:46:45.948Z,24.45
2023-01-19T07:49:13.408Z,25.48
2023-01-19T07:51:40.796Z,22.33
2023-01-19T07:54:08.541Z,26.25
2023-01-19T07:56:35.687Z,21.35
2023-01-19T07:59:03.382Z,24.10
2023-01-19T08:01:31.564Z,21.85
2023-01-19T08:03:59.037Z,22.13
2023-01-19T08:06:35.443Z,24.17
2023-01-19T08:09:05.562Z,23.85
2023-01-19T08:11:33.723Z,24.42
2023-01-19T08:14:01.015Z,25.02
2023-01-19T08:16:28.393Z,23.90
2023-01-19T08:18:56.481Z,24.85
2023-01-19T08:21:23.696Z,24.87
2023-01-19T08:23:58.110Z,21.60
2023-01-19T08:26:34.984Z,22.98
2023-01-19T08:29:04.827Z,18.27
2023-01-19T08:31:32.348Z,23.38
2023-01-19T08:33:59.506Z,21.35
2023-01-19T08:36:27.342Z,19.12
2023-01-19T08:38:54.464Z,21.70
2023-01-19T08:41:22.344Z,24.98
2023-01-19T08:43:50.270Z,26.52
2023-01-19T08:46:20.770Z,25.02
2023-01-19T08:48:54.511Z,27.05
2023-01-19T08:51:22.384Z,22.58
2023-01-19T08:53:49.605Z,24.35
2023-01-19T08:56:18.532Z,26.85
2023-01-19T08:58:59.446Z,23.62
2023-01-19T09:01:37.019Z,21.90
2023-01-19T09:04:04.924Z,23.20
2023-01-19T09:06:32.707Z,19.90
2023-01-19T09:09:00.562Z,27.83
2023-01-19T09:11:27.985Z,20.35
2023-01-19T09:13:55.206Z,25.10
2023-01-19T09:16:22.469Z,20.88
2023-01-19T09:18:49.958Z,20.08
2023-01-19T09:21:16.991Z,24.27
2023-01-19T09:23:44.619Z,24.02
2023-01-19T09:26:12.055Z,23.02
2023-01-19T09:28:39.523Z,21.70
2023-01-19T09:31:08.400Z,21.83
2023-01-19T09:33:36.155Z,20.33
2023-01-19T09:36:03.463Z,21.20
2023-01-19T09:38:32.836Z,18.48
2023-01-19T09:41:01.326Z,17.80
2023-01-19T09:43:48.807Z,18.33
2023-01-19T09:46:29.765Z,21.50
2023-01-19T09:49:01.455Z,21.90
2023-01-19T09:51:34.796Z,20.33
2023-01-19T09:54:07.899Z,19.27
2023-01-19T09:56:36.025Z,24.43
2023-01-19T09:59:29.556Z,21.62
2023-01-19T10:02:07.102Z,19.50
2023-01-19T10:04:40.302Z,20.80
2023-01-19T10:07:28.474Z,16.08
2023-01-19T10:10:17.405Z,17.65
2023-01-19T10:13:21.687Z,21.83
2023-01-19T10:15:55.232Z,17.67
2023-01-19T10:18:41.123Z,18.95
2023-01-19T10:21:10.549Z,21.95
2023-01-19T10:24:06.649Z,16.42
2023-01-19T10:26:38.505Z,18.92
2023-01-19T10:29:13.521Z,18.52
2023-01-19T10:31:44.753Z,18.85
2023-01-19T10:34:21.592Z,17.35
2023-01-19T10:37:02.599Z,16.02
2023-01-19T10:39:30.107Z,16.65
2023-01-19T10:42:01.003Z,17.02
2023-01-19T10:44:33.974Z,18.67
2023-01-19T10:47:02.296Z,17.98
2023-01-19T10:49:36.220Z,19.60
2023-01-19T10:54:36.334Z,17.12
2023-01-19T10:57:07.585Z,20.85
2023-01-19T10:59:46.579Z,18.08
2023-01-19T11:02:28.789Z,19.85
2023-01-19T11:05:01.908Z,18.20
2023-01-19T11:07:33.985Z,20.50
2023-01-19T11:10:16.566Z,19.23
2023-01-19T11:12:59.049Z,18.25
2023-01-19T11:15:44.641Z,23.25
2023-01-19T11:18:27.252Z,17.77
2023-01-19T11:20:56.840Z,20.05
2023-01-19T11:23:43.016Z,23.02
2023-01-19T11:26:16.460Z,19.70
2023-01-19T11:28:48.717Z,19.62
2023-01-19T11:31:17.641Z,24.05
2023-01-19T11:33:45.563Z,28.00
2023-01-19T11:36:36.321Z,19.62
2023-01-19T11:39:12.651Z,17.85
2023-01-19T11:41:41.304Z,18.27
2023-01-19T11:44:26.508Z,16.77
2023-01-19T11:46:59.832Z,24.58
2023-01-19T11:49:33.185Z,18.55
2023-01-19T11:55:32.097Z,16.85
2023-01-19T11:57:59.720Z,18.50
2023-01-19T12:00:42.596Z,20.67
2023-01-19T12:03:39.405Z,21.23
2023-01-19T12:06:15.425Z,15.82
2023-01-19T12:08:48.495Z,19.20
2023-01-19T12:11:20.130Z,18.55
2023-01-19T12:13:48.587Z,19.75
2023-01-19T12:16:25.209Z,18.12
2023-01-19T12:19:00.033Z,18.17
2023-01-19T12:23:57.305Z,18.27
2023-01-19T12:26:54.290Z,17.12
2023-01-19T12:29:25.978Z,18.15
2023-01-19T12:32:16.389Z,17.60
2023-01-19T12:34:48.286Z,15.77
2023-01-19T12:37:27.802Z,16.50
2023-01-19T12:39:57.856Z,18.08
2023-01-19T12:42:26.490Z,16.42
2023-01-19T12:45:16.486Z,15.02
2023-01-19T12:47:54.225Z,20.77
2023-01-19T12:50:24.144Z,20.70
2023-01-19T12:52:58.719Z,17.75
2023-01-19T12:55:36.263Z,18.75
2023-01-19T12:58:06.524Z,19.98
2023-01-19T13:00:44.795Z,17.15
2023-01-19T13:03:17.805Z,20.65
2023-01-19T13:05:44.751Z,15.27
2023-01-19T13:08:19.388Z,20.12
2023-01-19T13:14:04.236Z,18.12
2023-01-19T13:16:31.264Z,19.20
2023-01-19T13:18:58.534Z,18.62
2023-01-19T13:21:28.529Z,18.58
2023-01-19T13:24:02.154Z,20.25
2023-01-19T13:26:52.041Z,19.52
2023-01-19T13:29:35.296Z,16.42
2023-01-19T13:32:06.492Z,18.33
2023-01-19T13:34:42.518Z,19.80
2023-01-19T13:37:20.013Z,18.87
2023-01-19T13:39:50.162Z,20.42
2023-01-19T13:42:40.039Z,24.17
2023-01-19T13:45:28.331Z,24.60
2023-01-19T13:47:58.683Z,23.23
2023-01-19T13:50:40.207Z,20.33
2023-01-19T13:53:19.063Z,18.48
2023-01-19T13:55:48.162Z,17.83
2023-01-19T13:58:23.457Z,19.87
2023-01-19T14:00:50.681Z,17.90
2023-01-19T14:03:23.048Z,19.15
2023-01-19T14:05:52.485Z,21.98
2023-01-19T14:08:21.640Z,17.25
2023-01-19T14:10:54.740Z,15.48
2023-01-19T14:13:31.121Z,15.23
2023-01-19T14:16:06.615Z,12.60
2023-01-19T14:18:35.384Z,12.75
2023-01-19T14:21:15.750Z,16.10
2023-01-19T14:23:43.137Z,11.50
2023-01-19T14:26:38.007Z,16.25
2023-01-19T14:29:17.291Z,13.05
2023-01-19T14:31:53.195Z,10.63
2023-01-19T14:34:34.162Z,12.45
2023-01-19T14:37:03.477Z,12.23
2023-01-19T14:39:35.864Z,12.23
2023-01-19T14:42:06.884Z,16.77
2023-01-19T14:44:37.113Z,10.90
2023-01-19T14:47:05.959Z,12.68
2023-01-19T14:49:47.547Z,12.57
2023-01-19T14:52:33.776Z,10.95
2023-01-19T14:55:03.912Z,16.52
2023-01-19T14:57:30.956Z,15.25
2023-01-19T14:59:58.076Z,13.10
2023-01-19T15:02:25.648Z,14.95
2023-01-19T15:04:55.429Z,12.45
2023-01-19T15:07:25.104Z,15.32
2023-01-19T15:09:52.835Z,12.82
2023-01-19T15:12:24.065Z,13.48
2023-01-19T15:14:51.155Z,15.02
2023-01-19T15:17:25.652Z,15.82
2023-01-19T15:22:28.795Z,13.73
2023-01-19T15:24:59.999Z,15.68
2023-01-19T15:27:27.526Z,15.95
2023-01-19T15:29:54.653Z,17.02
2023-01-19T15:32:21.719Z,19.75
2023-01-19T15:34:49.118Z,16.60
2023-01-19T15:37:16.167Z,16.52
2023-01-19T15:39:43.166Z,16.20
2023-01-19T15:42:14.476Z,17.75
2023-01-19T15:44:41.521Z,16.33
2023-01-19T15:47:09.841Z,17.60
2023-01-19T15:49:37.191Z,20.48
2023-01-19T15:52:04.379Z,17.33
2023-01-19T15:54:31.404Z,18.87
2023-01-19T15:56:58.791Z,20.42
2023-01-19T15:59:26.002Z,18.60
2023-01-19T16:01:53.135Z,20.42
2023-01-19T16:04:20.564Z,19.67
2023-01-19T16:06:47.828Z,21.73
2023-01-19T16:09:18.439Z,22.23
2023-01-19T16:11:46.450Z,25.27
2023-01-19T16:14:14.169Z,23.12
2023-01-19T16:16:44.865Z,17.27
2023-01-19T16:19:14.632Z,21.50
2023-01-19T16:21:43.878Z,20.75
2023-01-19T16:24:10.890Z,23.67
2023-01-19T16:26:38.255Z,20.83
2023-01-19T16:29:10.967Z,19.80
2023-01-19T16:31:42.678Z,16.65
2023-01-19T16:34:10.157Z,20.23
2023-01-19T16:36:40.583Z,18.35
2023-01-19T16:39:11.766Z,20.58
2023-01-19T16:41:39.429Z,15.88
2023-01-19T16:44:07.351Z,16.35
2023-01-19T16:46:37.168Z,19.50
2023-01-19T16:49:07.329Z,18.08
2023-01-19T16:51:34.659Z,18.20
2023-01-19T16:54:01.966Z,17.35
2023-01-19T16:56:29.011Z,18.25
2023-01-19T16:58:57.798Z,17.55
2023-01-19T17:01:27.199Z,19.98
2023-01-19T17:03:55.231Z,17.08
2023-01-19T17:06:24.094Z,16.98
2023-01-19T17:08:52.490Z,17.05
2023-01-19T17:11:22.861Z,20.80
2023-01-19T17:13:54.516Z,23.33
2023-01-19T17:16:22.740Z,20.85
2023-01-19T17:18:50.739Z,18.67
2023-01-19T17:21:17.978Z,20.30
2023-01-19T17:23:47.253Z,16.83
2023-01-19T17:26:15.755Z,16.45
2023-01-19T17:28:43.604Z,20.70
2023-01-19T17:31:13.668Z,18.15
2023-01-19T17:33:44.386Z,19.98
2023-01-19T17:36:14.251Z,17.00
2023-01-19T17:38:42.239Z,18.62
2023-01-19T17:41:29.462Z,16.92
2023-01-19T17:43:57.624Z,17.55
2023-01-19T17:46:26.517Z,16.80
2023-01-19T17:49:02.405Z,22.87
2023-01-19T17:51:31.164Z,17.35
2023-01-19T17:53:58.770Z,17.37
2023-01-19T17:56:29.727Z,19.15
2023-01-19T17:58:58.341Z,17.23
2023-01-19T18:01:27.928Z,18.70
2023-01-19T18:03:56.473Z,17.87
2023-01-19T18:06:23.961Z,16.98
2023-01-19T18:08:51.285Z,19.62
2023-01-19T18:11:22.527Z,18.92
2023-01-19T18:13:50.873Z,15.82
2023-01-19T18:16:21.784Z,13.65
2023-01-19T18:18:50.181Z,18.05
2023-01-19T18:21:18.095Z,16.98
2023-01-19T18:23:45.781Z,17.48
2023-01-19T18:26:19.972Z,16.35
2023-01-19T18:28:48.203Z,17.30
2023-01-19T18:31:19.113Z,16.33
2023-01-19T18:33:47.910Z,18.33
2023-01-19T18:36:16.955Z,15.45
2023-01-19T18:38:44.671Z,15.77
2023-01-19T18:41:13.083Z,16.92
2023-01-19T18:43:40.495Z,13.93
2023-01-19T18:46:08.241Z,18.87
2023-01-19T18:48:37.875Z,16.52
2023-01-19T18:51:09.754Z,15.98
2023-01-19T18:53:37.642Z,18.58
2023-01-19T18:56:05.855Z,15.95
2023-01-19T18:58:33.992Z,17.20
2023-01-19T19:01:01.748Z,15.07
2023-01-19T19:03:29.766Z,17.67
2023-01-19T19:05:56.928Z,15.10
2023-01-19T19:08:24.324Z,15.23
2023-01-19T19:10:51.671Z,15.82
2023-01-19T19:13:21.818Z,14.70
2023-01-19T19:15:49.224Z,17.48
2023-01-19T19:18:16.668Z,17.08
2023-01-19T19:20:44.325Z,16.85
2023-01-19T19:23:11.968Z,15.32
2023-01-19T19:25:39.382Z,17.10
2023-01-19T19:28:06.736Z,12.63
2023-01-19T19:30:35.653Z,15.55
2023-01-19T19:33:02.999Z,14.63
2023-01-19T19:35:30.340Z,14.10
2023-01-19T19:37:57.778Z,16.52
2023-01-19T19:40:27.014Z,11.80
2023-01-19T19:42:54.111Z,13.23
2023-01-19T19:45:21.223Z,17.25
2023-01-19T19:47:48.619Z,15.82
2023-01-19T19:50:16.060Z,12.30
2023-01-19T19:52:43.299Z,14.07
2023-01-19T19:55:11.117Z,14.52
2023-01-19T19:57:38.362Z,14.98
2023-01-19T20:00:06.629Z,11.70
2023-01-19T20:02:36.771Z,15.48
2023-01-19T20:05:04.794Z,17.08
2023-01-19T20:07:34.637Z,13.80
2023-01-19T20:10:01.749Z,13.88
2023-01-19T20:12:29.099Z,12.60
2023-01-19T20:14:56.132Z,17.37
2023-01-19T20:17:24.697Z,12.55
2023-01-19T20:19:52.133Z,13.45
2023-01-19T20:22:19.229Z,11.73
2023-01-19T20:24:46.407Z,14.18
2023-01-19T20:27:13.775Z,15.38
2023-01-19T20:29:40.944Z,14.10
2023-01-19T20:32:08.199Z,14.07
2023-01-19T20:34:36.103Z,14.73
2023-01-19T20:37:04.713Z,12.02
2023-01-19T20:39:35.349Z,14.35
2023-01-19T20:42:02.788Z,16.25
2023-01-19T20:44:30.306Z,13.93
2023-01-19T20:46:57.389Z,13.15
2023-01-19T20:49:27.119Z,15.85
2023-01-19T20:51:54.602Z,16.73
2023-01-19T20:54:24.597Z,12.57
2023-01-19T20:56:52.011Z,12.77
2023-01-19T20:59:19.224Z,14.32
2023-01-19T21:01:46.530Z,22.98
2023-01-19T21:04:14.602Z,18.55
2023-01-19T21:06:42.022Z,14.87
2023-01-19T21:09:10.463Z,19.37
2023-01-19T21:11:38.552Z,16.17
2023-01-19T21:14:07.169Z,16.20
2023-01-19T21:16:35.042Z,15.85
2023-01-19T21:19:03.082Z,15.60
2023-01-19T21:21:31.627Z,14.73
2023-01-19T21:24:00.984Z,12.50
2023-01-19T21:26:33.412Z,15.00
2023-01-19T21:29:01.709Z,13.95
2023-01-19T21:31:29.933Z,13.02
2023-01-19T21:33:57.869Z,14.63
2023-01-19T21:36:25.124Z,14.90
2023-01-19T21:38:52.918Z,15.00
2023-01-19T21:41:20.194Z,13.55
2023-01-19T21:43:47.628Z,13.52
2023-01-19T21:46:19.547Z,14.35
2023-01-19T21:48:47.368Z,16.75
2023-01-19T21:51:15.785Z,16.17
2023-01-19T21:53:42.897Z,12.90
2023-01-19T21:56:11.265Z,17.65
2023-01-19T21:58:39.040Z,14.77
2023-01-19T22:01:15.385Z,13.90
2023-01-19T22:03:44.976Z,12.95
2023-01-19T22:06:14.230Z,16.85
2023-01-19T22:08:41.797Z,14.57
2023-01-19T22:11:11.757Z,12.82
2023-01-19T22:13:39.654Z,14.60
2023-01-19T22:16:10.031Z,14.52
2023-01-19T22:18:43.001Z,14.43
2023-01-19T22:21:12.279Z,17.20
2023-01-19T22:23:40.591Z,14.02
2023-01-19T22:26:09.853Z,13.18
2023-01-19T22:28:37.639Z,15.93
2023-01-19T22:31:06.337Z,17.27
2023-01-19T22:33:33.540Z,14.35
2023-01-19T22:36:21.525Z,15.60
2023-01-19T22:38:59.753Z,17.37
2023-01-19T22:41:32.030Z,18.27
2023-01-19T22:44:01.731Z,13.82
2023-01-19T22:46:31.285Z,14.82
2023-01-19T22:48:59.154Z,15.82
2023-01-19T22:51:30.493Z,14.80
2023-01-19T22:53:57.767Z,17.45
2023-01-19T22:56:27.187Z,17.02
2023-01-19T22:58:55.314Z,14.68
2023-01-19T23:01:24.718Z,13.05
2023-01-19T23:03:52.479Z,14.85
2023-01-19T23:06:25.841Z,12.48
2023-01-19T23:08:55.341Z,13.77
2023-01-19T23:11:25.891Z,13.00
2023-01-19T23:13:53.524Z,15.65
2023-01-19T23:16:20.712Z,18.05
2023-01-19T23:18:51.937Z,16.05
2023-01-19T23:21:21.621Z,15.48
2023-01-19T23:23:49.211Z,14.68
2023-01-19T23:26:18.523Z,14.18
2023-01-19T23:28:46.724Z,13.62
2023-01-19T23:31:18.736Z,15.07
2023-01-19T23:33:45.888Z,12.82
2023-01-19T23:36:14.751Z,12.88
2023-01-19T23:38:42.751Z,13.32
2023-01-19T23:41:10.209Z,11.98
2023-01-19T23:43:37.645Z,13.30
2023-01-19T23:46:06.684Z,17.77
2023-01-19T23:48:34.718Z,13.27
2023-01-19T23:51:25.889Z,14.80
2023-01-19T23:53:53.006Z,13.77
2023-01-19T23:56:23.920Z,15.15
2023-01-19T23:59:00.803Z,15.13
